sensor_id;sensor_type;location;lat;lon;timestamp;pressure;altitude;pressure_sealevel;temperature;humidity
43683;BME280;29285;52.128;21.060;2023-06-10T00:02:08;100312.72;;;21.62;99.33
43683;BME280;29285;52.128;21.060;2023-06-10T00:07:09;100311.25;;;21.60;99.49
43683;BME280;29285;52.128;21.060;2023-06-10T00:12:10;100312.48;;;21.60;99.75
43683;BME280;29285;52.128;21.060;2023-06-10T00:17:12;100314.01;;;21.58;99.88
43683;BME280;29285;52.128;21.060;2023-06-10T00:22:13;100308.04;;;21.54;99.98
43683;BME280;29285;52.128;21.060;2023-06-10T00:27:14;100304.71;;;21.51;100.00
43683;BME280;29285;52.128;21.060;2023-06-10T00:32:16;100298.86;;;21.49;100.00
43683;BME280;29285;52.128;21.060;2023-06-10T00:37:17;100300.69;;;21.45;100.00
43683;BME280;29285;52.128;21.060;2023-06-10T00:42:18;100300.36;;;21.39;100.00
43683;BME280;29285;52.128;21.060;2023-06-10T00:47:20;100303.02;;;21.33;100.00
43683;BME280;29285;52.128;21.060;2023-06-10T00:52:22;100310.61;;;21.27;100.00
43683;BME280;29285;52.128;21.060;2023-06-10T00:57:25;100312.59;;;21.23;100.00
43683;BME280;29285;52.128;21.060;2023-06-10T01:02:27;100316.09;;;21.21;100.00
43683;BME280;29285;52.128;21.060;2023-06-10T01:07:34;100314.06;;;21.17;100.00
43683;BME280;29285;52.128;21.060;2023-06-10T01:12:53;100315.34;;;21.13;100.00
43683;BME280;29285;52.128;21.060;2023-06-10T01:18:00;100313.52;;;21.02;100.00
43683;BME280;29285;52.128;21.060;2023-06-10T01:23:03;100315.06;;;20.97;100.00
43683;BME280;29285;52.128;21.060;2023-06-10T01:33:06;100325.52;;;20.96;100.00
43683;BME280;29285;52.128;21.060;2023-06-10T01:38:08;100328.48;;;20.90;100.00
43683;BME280;29285;52.128;21.060;2023-06-10T01:43:10;100327.99;;;20.87;100.00
43683;BME280;29285;52.128;21.060;2023-06-10T01:48:11;100328.48;;;20.84;100.00
43683;BME280;29285;52.128;21.060;2023-06-10T01:53:13;100334.31;;;20.81;100.00
43683;BME280;29285;52.128;21.060;2023-06-10T01:58:14;100334.30;;;20.74;100.00
43683;BME280;29285;52.128;21.060;2023-06-10T02:03:15;100334.80;;;20.66;99.87
43683;BME280;29285;52.128;21.060;2023-06-10T02:08:16;100336.88;;;20.61;99.68
43683;BME280;29285;52.128;21.060;2023-06-10T02:13:17;100337.17;;;20.59;99.62
43683;BME280;29285;52.128;21.060;2023-06-10T02:18:19;100342.96;;;20.53;99.43
43683;BME280;29285;52.128;21.060;2023-06-10T02:23:21;100345.46;;;20.46;99.15
43683;BME280;29285;52.128;21.060;2023-06-10T02:28:22;100349.34;;;20.40;98.93
43683;BME280;29285;52.128;21.060;2023-06-10T02:33:36;100353.00;;;20.34;98.73
43683;BME280;29285;52.128;21.060;2023-06-10T02:38:41;100353.80;;;20.30;98.53
43683;BME280;29285;52.128;21.060;2023-06-10T02:43:42;100363.17;;;20.29;98.38
43683;BME280;29285;52.128;21.060;2023-06-10T02:48:43;100367.77;;;20.32;98.43
43683;BME280;29285;52.128;21.060;2023-06-10T02:53:45;100370.83;;;20.28;98.21
43683;BME280;29285;52.128;21.060;2023-06-10T02:58:48;100374.95;;;20.23;97.93
43683;BME280;29285;52.128;21.060;2023-06-10T03:03:53;100374.73;;;20.17;97.71
43683;BME280;29285;52.128;21.060;2023-06-10T03:08:57;100379.41;;;20.13;97.40
43683;BME280;29285;52.128;21.060;2023-06-10T03:13:58;100382.17;;;20.14;97.36
43683;BME280;29285;52.128;21.060;2023-06-10T03:18:59;100391.77;;;20.12;97.24
43683;BME280;29285;52.128;21.060;2023-06-10T03:24:03;100395.17;;;20.17;97.39
43683;BME280;29285;52.128;21.060;2023-06-10T03:29:10;100397.41;;;20.24;97.45
43683;BME280;29285;52.128;21.060;2023-06-10T03:34:11;100405.49;;;20.35;97.42
43683;BME280;29285;52.128;21.060;2023-06-10T03:39:12;100410.88;;;20.42;97.38
43683;BME280;29285;52.128;21.060;2023-06-10T03:44:13;100415.56;;;20.47;97.21
43683;BME280;29285;52.128;21.060;2023-06-10T03:49:15;100417.33;;;20.53;97.15
43683;BME280;29285;52.128;21.060;2023-06-10T03:54:16;100418.30;;;20.55;96.99
43683;BME280;29285;52.128;21.060;2023-06-10T03:59:17;100419.94;;;20.54;96.78
43683;BME280;29285;52.128;21.060;2023-06-10T04:04:18;100421.73;;;20.50;96.56
43683;BME280;29285;52.128;21.060;2023-06-10T04:09:19;100420.36;;;20.49;96.37
43683;BME280;29285;52.128;21.060;2023-06-10T04:14:20;100422.77;;;20.50;96.24
43683;BME280;29285;52.128;21.060;2023-06-10T04:19:25;100422.31;;;20.59;96.28
43683;BME280;29285;52.128;21.060;2023-06-10T04:24:26;100423.88;;;20.65;96.22
43683;BME280;29285;52.128;21.060;2023-06-10T04:29:28;100423.15;;;20.65;96.10
43683;BME280;29285;52.128;21.060;2023-06-10T04:34:29;100421.45;;;20.67;96.01
43683;BME280;29285;52.128;21.060;2023-06-10T04:39:30;100420.55;;;20.73;95.98
43683;BME280;29285;52.128;21.060;2023-06-10T04:44:32;100418.66;;;20.85;96.02
43683;BME280;29285;52.128;21.060;2023-06-10T04:49:33;100423.60;;;20.95;96.03
43683;BME280;29285;52.128;21.060;2023-06-10T04:54:42;100428.54;;;21.04;96.01
43683;BME280;29285;52.128;21.060;2023-06-10T04:59:44;100434.61;;;21.09;95.90
43683;BME280;29285;52.128;21.060;2023-06-10T05:04:45;100436.64;;;21.16;95.79
43683;BME280;29285;52.128;21.060;2023-06-10T05:09:46;100442.70;;;21.22;95.79
43683;BME280;29285;52.128;21.060;2023-06-10T05:14:47;100445.91;;;21.24;95.58
43683;BME280;29285;52.128;21.060;2023-06-10T05:19:48;100445.39;;;21.30;95.57
43683;BME280;29285;52.128;21.060;2023-06-10T05:25:00;100447.78;;;21.40;95.66
43683;BME280;29285;52.128;21.060;2023-06-10T05:30:04;100444.55;;;21.47;95.55
43683;BME280;29285;52.128;21.060;2023-06-10T05:35:20;100448.66;;;21.52;95.43
43683;BME280;29285;52.128;21.060;2023-06-10T05:40:21;100449.34;;;21.62;95.47
43683;BME280;29285;52.128;21.060;2023-06-10T05:45:23;100447.80;;;21.69;95.57
43683;BME280;29285;52.128;21.060;2023-06-10T05:56:10;100445.48;;;21.88;95.62
43683;BME280;29285;52.128;21.060;2023-06-10T06:01:20;100443.75;;;21.96;95.68
43683;BME280;29285;52.128;21.060;2023-06-10T06:06:21;100446.78;;;22.04;95.72
43683;BME280;29285;52.128;21.060;2023-06-10T06:11:25;100440.67;;;22.06;95.45
43683;BME280;29285;52.128;21.060;2023-06-10T06:16:30;100442.80;;;22.08;95.36
43683;BME280;29285;52.128;21.060;2023-06-10T06:21:31;100439.40;;;22.15;95.30
43683;BME280;29285;52.128;21.060;2023-06-10T06:26:32;100446.00;;;22.17;95.35
43683;BME280;29285;52.128;21.060;2023-06-10T06:31:33;100443.40;;;22.16;95.27
43683;BME280;29285;52.128;21.060;2023-06-10T06:36:34;100445.09;;;22.20;95.35
43683;BME280;29285;52.128;21.060;2023-06-10T06:41:35;100443.14;;;22.23;95.41
43683;BME280;29285;52.128;21.060;2023-06-10T06:46:39;100447.23;;;22.28;95.33
43683;BME280;29285;52.128;21.060;2023-06-10T06:51:44;100446.42;;;22.35;95.34
43683;BME280;29285;52.128;21.060;2023-06-10T06:56:48;100453.84;;;22.44;95.30
43683;BME280;29285;52.128;21.060;2023-06-10T07:01:49;100458.80;;;22.49;95.16
43683;BME280;29285;52.128;21.060;2023-06-10T07:06:50;100464.09;;;22.58;95.22
43683;BME280;29285;52.128;21.060;2023-06-10T07:11:51;100463.19;;;22.72;95.33
43683;BME280;29285;52.128;21.060;2023-06-10T07:16:55;100460.15;;;22.78;95.16
43683;BME280;29285;52.128;21.060;2023-06-10T07:21:57;100459.18;;;22.85;95.11
43683;BME280;29285;52.128;21.060;2023-06-10T07:26:58;100465.13;;;22.97;95.15
43683;BME280;29285;52.128;21.060;2023-06-10T07:31:59;100465.39;;;23.04;95.07
43683;BME280;29285;52.128;21.060;2023-06-10T07:37:00;100467.65;;;23.09;95.01
43683;BME280;29285;52.128;21.060;2023-06-10T07:42:01;100469.77;;;23.18;94.93
43683;BME280;29285;52.128;21.060;2023-06-10T07:47:02;100472.75;;;23.23;94.80
43683;BME280;29285;52.128;21.060;2023-06-10T07:52:04;100475.98;;;23.31;94.78
43683;BME280;29285;52.128;21.060;2023-06-10T07:57:05;100472.85;;;23.38;94.85
43683;BME280;29285;52.128;21.060;2023-06-10T08:02:07;100475.29;;;23.44;94.64
43683;BME280;29285;52.128;21.060;2023-06-10T08:07:08;100481.52;;;23.49;94.42
43683;BME280;29285;52.128;21.060;2023-06-10T08:12:10;100480.66;;;23.58;94.41
43683;BME280;29285;52.128;21.060;2023-06-10T08:17:11;100484.19;;;23.72;94.52
43683;BME280;29285;52.128;21.060;2023-06-10T08:22:12;100481.30;;;23.86;94.44
43683;BME280;29285;52.128;21.060;2023-06-10T08:27:13;100485.98;;;24.00;94.53
43683;BME280;29285;52.128;21.060;2023-06-10T08:32:14;100488.19;;;23.96;94.51
43683;BME280;29285;52.128;21.060;2023-06-10T08:37:15;100486.11;;;23.98;94.03
43683;BME280;29285;52.128;21.060;2023-06-10T08:42:25;100482.35;;;24.09;93.87
43683;BME280;29285;52.128;21.060;2023-06-10T08:47:30;100477.20;;;24.25;93.80
43683;BME280;29285;52.128;21.060;2023-06-10T08:52:48;100482.52;;;24.32;93.56
43683;BME280;29285;52.128;21.060;2023-06-10T08:57:51;100483.48;;;24.36;93.44
43683;BME280;29285;52.128;21.060;2023-06-10T09:02:52;100486.77;;;24.42;93.03
43683;BME280;29285;52.128;21.060;2023-06-10T09:07:53;100488.49;;;24.55;92.84
43683;BME280;29285;52.128;21.060;2023-06-10T09:12:56;100493.67;;;24.69;92.85
43683;BME280;29285;52.128;21.060;2023-06-10T09:17:58;100491.73;;;24.74;92.39
43683;BME280;29285;52.128;21.060;2023-06-10T09:23:09;100496.83;;;24.80;91.98
43683;BME280;29285;52.128;21.060;2023-06-10T09:28:16;100499.81;;;24.80;91.57
43683;BME280;29285;52.128;21.060;2023-06-10T09:33:24;100506.82;;;24.84;91.34
43683;BME280;29285;52.128;21.060;2023-06-10T09:38:32;100505.20;;;24.84;90.77
43683;BME280;29285;52.128;21.060;2023-06-10T09:48:41;100502.57;;;24.96;90.06
43683;BME280;29285;52.128;21.060;2023-06-10T09:53:54;100499.85;;;25.07;89.76
43683;BME280;29285;52.128;21.060;2023-06-10T09:58:55;100507.91;;;25.13;89.30
43683;BME280;29285;52.128;21.060;2023-06-10T10:03:57;100502.22;;;25.20;88.91
43683;BME280;29285;52.128;21.060;2023-06-10T10:08:59;100497.20;;;25.26;88.43
43683;BME280;29285;52.128;21.060;2023-06-10T10:14:03;100494.00;;;25.28;87.95
43683;BME280;29285;52.128;21.060;2023-06-10T10:19:08;100496.83;;;25.23;87.42
43683;BME280;29285;52.128;21.060;2023-06-10T10:24:21;100498.33;;;25.22;86.80
43683;BME280;29285;52.128;21.060;2023-06-10T10:29:33;100496.02;;;25.34;86.68
43683;BME280;29285;52.128;21.060;2023-06-10T10:34:45;100493.47;;;25.47;86.47
43683;BME280;29285;52.128;21.060;2023-06-10T10:40:00;100491.76;;;25.56;86.18
43683;BME280;29285;52.128;21.060;2023-06-10T10:45:02;100492.81;;;25.63;85.84
43683;BME280;29285;52.128;21.060;2023-06-10T10:50:16;100495.13;;;25.75;85.43
43683;BME280;29285;52.128;21.060;2023-06-10T10:55:18;100496.36;;;25.93;85.25
43683;BME280;29285;52.128;21.060;2023-06-10T11:00:26;100496.61;;;26.08;84.79
43683;BME280;29285;52.128;21.060;2023-06-10T11:05:44;100495.29;;;26.34;84.66
43683;BME280;29285;52.128;21.060;2023-06-10T11:10:52;100488.14;;;26.68;84.55
43683;BME280;29285;52.128;21.060;2023-06-10T11:15:59;100484.38;;;26.88;84.04
43683;BME280;29285;52.128;21.060;2023-06-10T11:21:03;100482.94;;;26.84;83.15
43683;BME280;29285;52.128;21.060;2023-06-10T11:31:42;100479.38;;;26.57;81.26
43683;BME280;29285;52.128;21.060;2023-06-10T11:36:43;100479.77;;;26.50;80.63
43683;BME280;29285;52.128;21.060;2023-06-10T11:41:46;100484.09;;;26.69;80.59
43683;BME280;29285;52.128;21.060;2023-06-10T11:47:08;100477.15;;;27.00;80.89
43683;BME280;29285;52.128;21.060;2023-06-10T11:57:49;100475.08;;;27.53;80.83
43683;BME280;29285;52.128;21.060;2023-06-10T12:02:58;100466.98;;;27.62;80.56
43683;BME280;29285;52.128;21.060;2023-06-10T12:08:09;100470.40;;;27.77;80.30
43683;BME280;29285;52.128;21.060;2023-06-10T12:13:14;100472.55;;;27.87;80.11
43683;BME280;29285;52.128;21.060;2023-06-10T12:18:19;100466.27;;;28.06;79.97
43683;BME280;29285;52.128;21.060;2023-06-10T12:23:20;100462.35;;;28.25;80.01
43683;BME280;29285;52.128;21.060;2023-06-10T12:28:23;100457.92;;;28.50;79.98
43683;BME280;29285;52.128;21.060;2023-06-10T12:33:25;100457.67;;;28.79;80.09
43683;BME280;29285;52.128;21.060;2023-06-10T12:38:26;100447.64;;;28.95;79.80
43683;BME280;29285;52.128;21.060;2023-06-10T12:43:31;100445.92;;;28.66;78.49
43683;BME280;29285;52.128;21.060;2023-06-10T12:48:32;100453.15;;;28.30;77.48
43683;BME280;29285;52.128;21.060;2023-06-10T12:53:34;100450.50;;;27.78;76.47
43683;BME280;29285;52.128;21.060;2023-06-10T12:58:35;100440.60;;;27.60;76.20
43683;BME280;29285;52.128;21.060;2023-06-10T13:03:37;100437.73;;;27.61;76.25
43683;BME280;29285;52.128;21.060;2023-06-10T13:08:39;100439.36;;;27.50;76.27
43683;BME280;29285;52.128;21.060;2023-06-10T13:13:41;100438.94;;;27.36;76.06
43683;BME280;29285;52.128;21.060;2023-06-10T13:18:42;100430.04;;;27.53;76.29
43683;BME280;29285;52.128;21.060;2023-06-10T13:23:44;100419.20;;;27.83;76.74
43683;BME280;29285;52.128;21.060;2023-06-10T13:28:46;100419.88;;;28.04;76.91
43683;BME280;29285;52.128;21.060;2023-06-10T13:33:47;100419.83;;;28.31;77.34
43683;BME280;29285;52.128;21.060;2023-06-10T13:38:49;100429.52;;;27.90;76.18
43683;BME280;29285;52.128;21.060;2023-06-10T13:43:50;100428.86;;;27.37;75.17
43683;BME280;29285;52.128;21.060;2023-06-10T13:48:51;100430.88;;;27.32;75.28
43683;BME280;29285;52.128;21.060;2023-06-10T13:53:52;100428.20;;;27.62;75.89
43683;BME280;29285;52.128;21.060;2023-06-10T13:58:53;100425.22;;;27.98;76.38
43683;BME280;29285;52.128;21.060;2023-06-10T14:03:54;100422.59;;;28.16;76.32
43683;BME280;29285;52.128;21.060;2023-06-10T14:08:56;100422.39;;;28.00;75.34
43683;BME280;29285;52.128;21.060;2023-06-10T14:13:57;100421.86;;;27.94;75.22
43683;BME280;29285;52.128;21.060;2023-06-10T14:18:58;100426.58;;;27.43;74.26
43683;BME280;29285;52.128;21.060;2023-06-10T14:23:59;100423.63;;;27.56;74.81
43683;BME280;29285;52.128;21.060;2023-06-10T14:29:03;100411.65;;;28.21;76.30
43683;BME280;29285;52.128;21.060;2023-06-10T14:34:14;100409.02;;;28.76;76.75
43683;BME280;29285;52.128;21.060;2023-06-10T14:39:16;100412.30;;;29.28;77.23
43683;BME280;29285;52.128;21.060;2023-06-10T14:44:19;100413.58;;;29.28;76.40
43683;BME280;29285;52.128;21.060;2023-06-10T14:49:20;100415.79;;;28.92;75.25
43683;BME280;29285;52.128;21.060;2023-06-10T14:54:21;100409.87;;;28.73;74.79
43683;BME280;29285;52.128;21.060;2023-06-10T14:59:22;100408.41;;;29.02;75.01
43683;BME280;29285;52.128;21.060;2023-06-10T15:04:34;100419.31;;;29.14;75.10
43683;BME280;29285;52.128;21.060;2023-06-10T15:09:39;100428.00;;;28.63;73.64
43683;BME280;29285;52.128;21.060;2023-06-10T15:14:40;100429.30;;;28.15;72.69
43683;BME280;29285;52.128;21.060;2023-06-10T15:19:41;100425.08;;;28.08;72.49
43683;BME280;29285;52.128;21.060;2023-06-10T15:24:42;100429.52;;;28.53;73.30
43683;BME280;29285;52.128;21.060;2023-06-10T15:29:44;100428.27;;;28.86;73.72
43683;BME280;29285;52.128;21.060;2023-06-10T15:34:45;100432.36;;;29.06;73.59
43683;BME280;29285;52.128;21.060;2023-06-10T15:39:51;100432.65;;;29.36;73.71
43683;BME280;29285;52.128;21.060;2023-06-10T15:44:53;100441.27;;;29.39;73.31
43683;BME280;29285;52.128;21.060;2023-06-10T15:49:54;100441.02;;;29.03;72.26
43683;BME280;29285;52.128;21.060;2023-06-10T15:54:55;100443.29;;;28.42;70.92
43683;BME280;29285;52.128;21.060;2023-06-10T15:59:56;100445.85;;;28.52;71.17
43683;BME280;29285;52.128;21.060;2023-06-10T16:05:06;100440.33;;;29.05;72.41
43683;BME280;29285;52.128;21.060;2023-06-10T16:10:10;100439.52;;;29.44;72.76
43683;BME280;29285;52.128;21.060;2023-06-10T16:15:11;100442.08;;;29.65;72.42
43683;BME280;29285;52.128;21.060;2023-06-10T16:20:12;100450.08;;;29.46;71.50
43683;BME280;29285;52.128;21.060;2023-06-10T16:25:13;100454.39;;;28.82;69.94
43683;BME280;29285;52.128;21.060;2023-06-10T16:30:14;100460.83;;;28.17;68.74
43683;BME280;29285;52.128;21.060;2023-06-10T16:35:16;100462.14;;;28.14;68.92
43683;BME280;29285;52.128;21.060;2023-06-10T16:40:20;100464.16;;;28.64;70.00
43683;BME280;29285;52.128;21.060;2023-06-10T16:45:21;100464.30;;;29.14;70.59
43683;BME280;29285;52.128;21.060;2023-06-10T16:50:23;100471.21;;;29.51;70.76
43683;BME280;29285;52.128;21.060;2023-06-10T16:55:24;100475.51;;;29.84;70.66
43683;BME280;29285;52.128;21.060;2023-06-10T17:00:25;100475.97;;;30.00;70.11
43683;BME280;29285;52.128;21.060;2023-06-10T17:05:26;100477.35;;;30.06;69.73
43683;BME280;29285;52.128;21.060;2023-06-10T17:10:27;100479.94;;;29.96;69.29
43683;BME280;29285;52.128;21.060;2023-06-10T17:15:28;100488.34;;;29.44;68.07
43683;BME280;29285;52.128;21.060;2023-06-10T17:20:29;100490.70;;;28.89;67.17
43683;BME280;29285;52.128;21.060;2023-06-10T17:25:31;100496.55;;;28.53;66.64
43683;BME280;29285;52.128;21.060;2023-06-10T17:30:34;100499.36;;;28.54;66.99
43683;BME280;29285;52.128;21.060;2023-06-10T17:35:35;100499.45;;;28.59;67.04
43683;BME280;29285;52.128;21.060;2023-06-10T17:40:36;100507.48;;;28.53;66.88
43683;BME280;29285;52.128;21.060;2023-06-10T17:45:40;100516.38;;;28.16;66.04
43683;BME280;29285;52.128;21.060;2023-06-10T17:50:41;100533.77;;;27.58;65.00
43683;BME280;29285;52.128;21.060;2023-06-10T17:55:42;100543.02;;;27.09;64.28
43683;BME280;29285;52.128;21.060;2023-06-10T18:00:43;100553.70;;;26.69;63.99
43683;BME280;29285;52.128;21.060;2023-06-10T18:05:45;100561.27;;;26.27;63.60
43683;BME280;29285;52.128;21.060;2023-06-10T18:10:46;100571.42;;;25.90;63.30
43683;BME280;29285;52.128;21.060;2023-06-10T18:15:50;100578.13;;;25.50;63.07
43683;BME280;29285;52.128;21.060;2023-06-10T18:20:54;100582.13;;;25.17;62.94
43683;BME280;29285;52.128;21.060;2023-06-10T18:25:57;100589.40;;;24.95;63.42
43683;BME280;29285;52.128;21.060;2023-06-10T18:31:00;100595.00;;;24.71;63.48
43683;BME280;29285;52.128;21.060;2023-06-10T18:36:04;100605.92;;;24.47;63.60
43683;BME280;29285;52.128;21.060;2023-06-10T18:41:05;100608.54;;;24.24;63.75
43683;BME280;29285;52.128;21.060;2023-06-10T18:46:07;100614.64;;;24.07;64.00
43683;BME280;29285;52.128;21.060;2023-06-10T18:51:11;100617.89;;;23.90;64.20
43683;BME280;29285;52.128;21.060;2023-06-10T18:56:12;100626.88;;;23.78;64.53
43683;BME280;29285;52.128;21.060;2023-06-10T19:01:14;100635.64;;;23.66;64.86
43683;BME280;29285;52.128;21.060;2023-06-10T19:06:16;100643.40;;;23.53;64.97
43683;BME280;29285;52.128;21.060;2023-06-10T19:11:17;100647.83;;;23.48;65.54
43683;BME280;29285;52.128;21.060;2023-06-10T19:16:19;100653.95;;;23.37;65.78
43683;BME280;29285;52.128;21.060;2023-06-10T19:21:20;100656.77;;;23.26;66.12
43683;BME280;29285;52.128;21.060;2023-06-10T19:26:21;100663.98;;;23.16;66.48
43683;BME280;29285;52.128;21.060;2023-06-10T19:31:22;100670.31;;;23.05;66.73
43683;BME280;29285;52.128;21.060;2023-06-10T19:36:23;100668.48;;;22.92;66.87
43683;BME280;29285;52.128;21.060;2023-06-10T19:41:24;100673.44;;;22.89;67.37
43683;BME280;29285;52.128;21.060;2023-06-10T19:46:26;100677.14;;;22.86;67.93
43683;BME280;29285;52.128;21.060;2023-06-10T19:51:27;100676.70;;;22.85;68.37
43683;BME280;29285;52.128;21.060;2023-06-10T19:56:28;100683.09;;;22.82;68.89
43683;BME280;29285;52.128;21.060;2023-06-10T20:01:30;100690.18;;;22.76;69.18
43683;BME280;29285;52.128;21.060;2023-06-10T20:06:31;100692.77;;;22.71;69.57
43683;BME280;29285;52.128;21.060;2023-06-10T20:11:32;100695.05;;;22.68;70.04
43683;BME280;29285;52.128;21.060;2023-06-10T20:16:33;100700.61;;;22.64;70.45
43683;BME280;29285;52.128;21.060;2023-06-10T20:21:34;100702.06;;;22.60;70.91
43683;BME280;29285;52.128;21.060;2023-06-10T20:26:36;100705.77;;;22.57;71.37
43683;BME280;29285;52.128;21.060;2023-06-10T20:31:37;100709.39;;;22.50;71.72
43683;BME280;29285;52.128;21.060;2023-06-10T20:36:38;100709.61;;;22.43;71.99
43683;BME280;29285;52.128;21.060;2023-06-10T20:41:39;100711.02;;;22.37;72.39
43683;BME280;29285;52.128;21.060;2023-06-10T20:46:41;100703.27;;;22.31;72.70
43683;BME280;29285;52.128;21.060;2023-06-10T20:51:42;100703.88;;;22.27;73.04
43683;BME280;29285;52.128;21.060;2023-06-10T20:56:43;100704.59;;;22.23;73.42
43683;BME280;29285;52.128;21.060;2023-06-10T21:01:45;100704.48;;;22.19;73.92
43683;BME280;29285;52.128;21.060;2023-06-10T21:06:46;100711.85;;;22.11;74.15
43683;BME280;29285;52.128;21.060;2023-06-10T21:11:47;100718.02;;;21.96;74.22
43683;BME280;29285;52.128;21.060;2023-06-10T21:16:48;100720.58;;;21.85;74.39
43683;BME280;29285;52.128;21.060;2023-06-10T21:21:49;100719.31;;;21.76;74.65
43683;BME280;29285;52.128;21.060;2023-06-10T21:26:51;100723.70;;;21.70;75.05
43683;BME280;29285;52.128;21.060;2023-06-10T21:31:55;100724.33;;;21.65;75.38
43683;BME280;29285;52.128;21.060;2023-06-10T21:36:56;100729.05;;;21.59;75.73
43683;BME280;29285;52.128;21.060;2023-06-10T21:41:58;100734.25;;;21.58;76.13
43683;BME280;29285;52.128;21.060;2023-06-10T21:46:59;100738.44;;;21.75;77.22
43683;BME280;29285;52.128;21.060;2023-06-10T21:52:00;100740.10;;;21.87;77.93
43683;BME280;29285;52.128;21.060;2023-06-10T21:57:01;100740.80;;;21.93;78.59
43683;BME280;29285;52.128;21.060;2023-06-10T22:02:02;100738.41;;;21.98;79.03
43683;BME280;29285;52.128;21.060;2023-06-10T22:07:04;100745.15;;;22.03;79.70
43683;BME280;29285;52.128;21.060;2023-06-10T22:12:08;100742.19;;;22.05;80.13
43683;BME280;29285;52.128;21.060;2023-06-10T22:17:10;100748.48;;;22.04;80.50
43683;BME280;29285;52.128;21.060;2023-06-10T22:22:12;100748.44;;;22.05;81.10
43683;BME280;29285;52.128;21.060;2023-06-10T22:27:13;100753.55;;;22.23;82.13
43683;BME280;29285;52.128;21.060;2023-06-10T22:32:14;100755.54;;;22.22;82.57
43683;BME280;29285;52.128;21.060;2023-06-10T22:37:15;100756.36;;;22.20;82.94
43683;BME280;29285;52.128;21.060;2023-06-10T22:42:16;100755.89;;;22.10;83.03
43683;BME280;29285;52.128;21.060;2023-06-10T22:47:18;100759.04;;;21.98;83.24
43683;BME280;29285;52.128;21.060;2023-06-10T22:52:19;100754.42;;;21.98;83.73
43683;BME280;29285;52.128;21.060;2023-06-10T22:57:20;100759.04;;;22.04;84.45
43683;BME280;29285;52.128;21.060;2023-06-10T23:02:21;100760.61;;;22.08;84.90
43683;BME280;29285;52.128;21.060;2023-06-10T23:07:22;100762.38;;;22.14;85.39
43683;BME280;29285;52.128;21.060;2023-06-10T23:12:23;100764.95;;;22.22;86.02
43683;BME280;29285;52.128;21.060;2023-06-10T23:17:24;100759.94;;;22.19;86.27
43683;BME280;29285;52.128;21.060;2023-06-10T23:22:28;100759.17;;;22.11;86.23
43683;BME280;29285;52.128;21.060;2023-06-10T23:27:34;100765.33;;;22.09;86.49
43683;BME280;29285;52.128;21.060;2023-06-10T23:32:35;100760.35;;;22.00;86.59
43683;BME280;29285;52.128;21.060;2023-06-10T23:37:37;100764.75;;;21.94;86.79
43683;BME280;29285;52.128;21.060;2023-06-10T23:42:38;100768.21;;;21.83;86.77
43683;BME280;29285;52.128;21.060;2023-06-10T23:47:40;100765.46;;;21.91;87.38
43683;BME280;29285;52.128;21.060;2023-06-10T23:52:41;100767.02;;;22.01;88.10
43683;BME280;29285;52.128;21.060;2023-06-10T23:57:42;100768.51;;;21.93;88.01
